Time;durP1;ratioP1;P1;durP2;ratioP2;P2;SDS_P1;SDS_P2;PMS_P1;PMS_P2;Temp;Humidity;BMP_temperature;BMP_pressure;BME280_temperature;BME280_humidity;BME280_pressure;Samples;Min_cycle;Max_cycle;Signal;HPM_P1;HPM_P2
2023/03/16 00:01:46;;;;;;;0.93;0.60;;;;;;;13.72;40.74;96332.25;5049216;28;20021;-29
2023/03/16 00:04:12;;;;;;;1.55;0.65;;;;;;;13.71;40.97;96336.94;5034402;28;20021;-29
2023/03/16 00:10:05;;;;;;;1.65;0.60;;;;;;;13.53;41.09;96340.34;5047219;28;20071;-29
2023/03/16 00:12:33;;;;;;;2.03;0.60;;;;;;;13.64;41.13;96340.69;5040714;28;20060;-28
2023/03/16 00:15:00;;;;;;;0.80;0.60;;;;;;;13.64;41.83;96343.41;5039083;28;20021;-28
2023/03/16 00:17:25;;;;;;;1.60;0.60;;;;;;;13.72;41.40;96334.97;5038127;28;20083;-29
2023/03/16 00:19:55;;;;;;;1.67;0.55;;;;;;;13.57;41.63;96340.22;5045988;28;20032;-29
2023/03/16 00:22:26;;;;;;;1.23;0.68;;;;;;;13.68;41.40;96345.25;5043839;28;20472;-29
2023/03/16 00:24:53;;;;;;;1.25;0.70;;;;;;;13.35;42.05;96340.28;5045242;28;20028;-29
2023/03/16 00:27:21;;;;;;;0.95;0.50;;;;;;;13.45;41.57;96344.56;5037826;28;20028;-28
2023/03/16 00:29:48;;;;;;;1.98;0.60;;;;;;;13.54;41.13;96349.28;5037401;28;20053;-29
2023/03/16 00:32:15;;;;;;;1.20;0.50;;;;;;;13.64;41.16;96357.03;5038058;28;20017;-28
2023/03/16 00:34:42;;;;;;;0.98;0.60;;;;;;;13.71;40.90;96360.72;5044213;28;20090;-28
2023/03/16 00:37:07;;;;;;;1.08;0.50;;;;;;;13.54;41.07;96355.47;5046051;28;20029;-28
2023/03/16 00:39:34;;;;;;;1.60;0.68;;;;;;;13.49;41.09;96358.00;5044676;28;20021;-28
2023/03/16 00:42:00;;;;;;;0.90;0.60;;;;;;;13.72;40.41;96341.19;5037855;28;20349;-28
2023/03/16 00:44:26;;;;;;;2.63;0.70;;;;;;;13.45;39.83;96339.09;5038100;28;20021;-28
2023/03/16 00:46:51;;;;;;;2.15;0.60;;;;;;;13.61;39.69;96343.53;5042527;28;20032;-28
2023/03/16 00:49:18;;;;;;;1.50;0.50;;;;;;;13.42;39.52;96331.06;5039097;28;20424;-29
2023/03/16 00:51:45;;;;;;;1.92;0.70;;;;;;;13.60;38.60;96322.94;5044310;28;20025;-28
2023/03/16 00:54:11;;;;;;;1.20;0.57;;;;;;;13.60;39.25;96320.97;5036130;28;20373;-29
2023/03/16 00:56:36;;;;;;;0.90;0.50;;;;;;;13.47;39.73;96330.47;5038210;28;20024;-28
2023/03/16 00:59:01;;;;;;;0.70;0.30;;;;;;;13.38;39.67;96316.81;5036896;28;20365;-28
2023/03/16 01:01:27;;;;;;;5.07;0.60;;;;;;;13.53;38.53;96304.91;5052111;28;20017;-28
2023/03/16 01:03:53;;;;;;;1.98;0.60;;;;;;;13.43;39.26;96308.06;5042779;28;20026;-28
2023/03/16 01:06:19;;;;;;;2.95;0.45;;;;;;;13.61;39.01;96314.31;5036830;28;20091;-28
2023/03/16 01:08:45;;;;;;;0.50;0.40;;;;;;;13.48;38.71;96310.19;5037392;28;20025;-28
2023/03/16 01:11:17;;;;;;;0.80;0.50;;;;;;;13.43;38.84;96313.50;5036795;28;20424;-28
2023/03/16 01:13:43;;;;;;;1.00;0.40;;;;;;;13.36;38.50;96321.94;5044761;28;20029;-28
2023/03/16 01:16:09;;;;;;;1.40;0.40;;;;;;;13.38;38.76;96333.16;5040119;28;20021;-29
2023/03/16 01:18:36;;;;;;;2.17;0.50;;;;;;;13.38;38.61;96327.69;5040667;28;20092;-29
2023/03/16 01:21:04;;;;;;;1.48;0.43;;;;;;;13.38;38.41;96327.69;5041473;28;20025;-29
2023/03/16 01:23:30;;;;;;;3.55;0.43;;;;;;;13.33;38.84;96331.00;5037148;28;20021;-29
2023/03/16 01:25:57;;;;;;;2.88;0.47;;;;;;;13.63;38.27;96327.50;5037054;28;20492;-29
2023/03/16 01:28:24;;;;;;;1.83;0.70;;;;;;;13.51;38.36;96326.41;5043628;28;20384;-29
2023/03/16 01:30:53;;;;;;;1.27;0.40;;;;;;;13.44;38.22;96328.66;5043150;28;20029;-29
2023/03/16 01:33:20;;;;;;;0.90;0.50;;;;;;;13.41;38.74;96338.47;5044120;28;20025;-29
2023/03/16 01:36:02;;;;;;;1.40;0.80;;;;;;;13.36;38.31;96338.28;5037000;28;20029;-29
2023/03/16 01:38:28;;;;;;;1.30;0.30;;;;;;;13.45;37.77;96336.38;5044309;28;20023;-29
2023/03/16 01:40:54;;;;;;;1.95;0.60;;;;;;;13.50;38.42;96338.50;5044844;28;20017;-29
2023/03/16 01:43:22;;;;;;;1.55;0.50;;;;;;;12.94;38.91;96333.94;5044619;28;20025;-29
2023/03/16 01:45:54;;;;;;;2.70;0.50;;;;;;;13.24;38.69;96343.34;5036006;28;20492;-29
2023/03/16 01:48:23;;;;;;;2.63;0.55;;;;;;;13.29;38.54;96347.47;5036836;28;20025;-29
2023/03/16 01:50:53;;;;;;;2.10;0.40;;;;;;;13.31;37.85;96347.81;5035915;28;20495;-29
2023/03/16 01:53:21;;;;;;;1.60;0.38;;;;;;;13.38;38.09;96352.97;5043364;28;20025;-29
2023/03/16 01:55:48;;;;;;;2.25;0.40;;;;;;;13.48;38.30;96353.78;5035901;28;20018;-29
2023/03/16 01:58:14;;;;;;;1.42;0.40;;;;;;;13.35;38.44;96355.84;5035821;28;20025;-29
2023/03/16 02:00:40;;;;;;;2.25;0.68;;;;;;;13.24;38.61;96351.53;5037053;28;20715;-29
2023/03/16 02:03:15;;;;;;;2.42;0.68;;;;;;;13.05;39.18;96360.78;5036192;28;20021;-29
2023/03/16 02:05:51;;;;;;;1.48;0.55;;;;;;;13.23;38.34;96343.81;5037338;28;20057;-29
2023/03/16 02:08:18;;;;;;;2.08;0.60;;;;;;;13.08;38.53;96338.13;5039535;28;20013;-29
2023/03/16 02:10:44;;;;;;;1.95;0.75;;;;;;;13.18;38.50;96339.72;5043658;28;20033;-29
2023/03/16 02:13:10;;;;;;;1.35;0.40;;;;;;;13.25;37.66;96331.25;5036372;28;20350;-29
2023/03/16 02:15:37;;;;;;;0.85;0.40;;;;;;;13.14;37.82;96330.91;5036063;28;20079;-29
2023/03/16 02:18:03;;;;;;;2.08;0.40;;;;;;;13.08;37.78;96337.34;5036728;28;20484;-29
2023/03/16 02:20:50;;;;;;;2.53;0.60;;;;;;;13.24;37.64;96329.75;5035450;28;20530;-29
2023/03/16 02:23:19;;;;;;;1.33;0.75;;;;;;;13.20;37.58;96334.59;5042836;28;20045;-29
2023/03/16 02:26:03;;;;;;;1.42;0.60;;;;;;;13.41;36.89;96337.72;5035520;28;20043;-29
2023/03/16 02:29:07;;;;;;;1.45;0.50;;;;;;;13.39;37.46;96343.59;5036016;28;20025;-29
2023/03/16 02:31:32;;;;;;;0.77;0.40;;;;;;;13.04;37.83;96336.72;5035270;28;20025;-29
2023/03/16 02:33:58;;;;;;;1.60;0.50;;;;;;;13.09;37.51;96336.16;5035668;28;20283;-29
2023/03/16 02:36:24;;;;;;;0.85;0.50;;;;;;;13.32;37.72;96341.16;5042524;28;20022;-29
2023/03/16 02:38:49;;;;;;;2.97;0.55;;;;;;;13.20;37.92;96326.41;5048586;28;20048;-28
2023/03/16 02:41:19;;;;;;;1.15;0.57;;;;;;;13.28;37.73;96327.66;5036796;28;20033;-29
2023/03/16 02:44:00;;;;;;;3.13;0.45;;;;;;;13.22;36.76;96317.81;5034512;28;20029;-28
2023/03/16 02:46:27;;;;;;;0.80;0.45;;;;;;;13.10;37.11;96321.34;5036184;28;20504;-28
2023/03/16 02:49:05;;;;;;;1.58;0.30;;;;;;;13.18;36.48;96326.09;5039737;28;20035;-28
2023/03/16 02:51:31;;;;;;;1.60;0.40;;;;;;;13.18;36.81;96328.81;5037245;28;20530;-28
2023/03/16 02:53:57;;;;;;;4.03;0.55;;;;;;;13.16;36.88;96320.34;5040152;28;20022;-28
2023/03/16 02:56:23;;;;;;;2.80;0.55;;;;;;;13.15;36.72;96315.31;5035846;28;20483;-28
2023/03/16 02:58:49;;;;;;;1.42;0.45;;;;;;;12.96;37.06;96311.72;5035175;28;20021;-28
2023/03/16 03:01:15;;;;;;;3.42;0.50;;;;;;;13.28;36.19;96319.50;5040479;28;20039;-28
2023/03/16 03:03:41;;;;;;;1.00;0.43;;;;;;;13.20;36.30;96314.75;5042020;28;20112;-28
2023/03/16 03:06:06;;;;;;;1.63;0.40;;;;;;;13.24;36.60;96316.13;5041457;28;20120;-28
2023/03/16 03:08:32;;;;;;;1.92;0.30;;;;;;;13.20;35.67;96318.25;5034969;28;20041;-28
2023/03/16 03:10:58;;;;;;;2.28;0.80;;;;;;;13.07;36.29;96311.31;5036825;28;20020;-28
2023/03/16 03:16:45;;;;;;;3.03;0.88;;;;;;;12.83;36.65;96309.06;5042950;28;20048;-28
2023/03/16 03:19:12;;;;;;;2.65;0.70;;;;;;;12.82;36.33;96302.09;5045413;28;20472;-29
2023/03/16 03:21:40;;;;;;;1.50;0.60;;;;;;;12.82;36.49;96296.66;5044737;28;20387;-29
2023/03/16 03:24:06;;;;;;;1.88;0.47;;;;;;;13.13;35.53;96310.28;5034278;28;20020;-29
2023/03/16 03:26:32;;;;;;;1.10;0.40;;;;;;;13.10;35.90;96313.16;5034878;28;20780;-29
2023/03/16 03:28:57;;;;;;;4.53;0.60;;;;;;;13.32;35.28;96310.44;5034793;28;20017;-29
2023/03/16 03:31:23;;;;;;;1.70;0.32;;;;;;;13.06;35.99;96302.41;5037712;28;20108;-28
2023/03/16 03:33:48;;;;;;;1.83;0.60;;;;;;;13.01;35.72;96300.25;5038475;28;20082;-28
2023/03/16 03:36:14;;;;;;;2.88;0.40;;;;;;;12.88;35.79;96311.19;5044338;28;20021;-27
2023/03/16 03:38:40;;;;;;;4.60;1.00;;;;;;;12.97;35.82;96302.34;5042082;28;20036;-28
2023/03/16 03:41:09;;;;;;;1.10;0.40;;;;;;;13.00;35.48;96306.13;5035145;28;20033;-28
2023/03/16 03:43:35;;;;;;;2.63;0.50;;;;;;;12.90;36.15;96308.03;5032617;28;20427;-28
2023/03/16 03:46:02;;;;;;;2.10;0.63;;;;;;;12.99;35.76;96313.53;5041190;28;20579;-28
2023/03/16 03:48:28;;;;;;;2.90;0.50;;;;;;;13.11;35.53;96304.53;5041853;28;20032;-28
2023/03/16 03:50:53;;;;;;;4.60;0.65;;;;;;;12.99;35.64;96318.97;5033912;28;20537;-28
2023/03/16 03:53:19;;;;;;;1.42;0.63;;;;;;;12.87;35.58;96317.09;5034815;28;20505;-28
2023/03/16 03:55:46;;;;;;;3.80;0.70;;;;;;;12.85;34.99;96319.50;5034323;28;20026;-28
2023/03/16 03:58:12;;;;;;;2.28;1.15;;;;;;;12.91;35.40;96317.72;5034613;28;20021;-29
2023/03/16 04:00:38;;;;;;;2.63;0.70;;;;;;;12.83;35.45;96332.81;5035037;28;20494;-29
2023/03/16 04:03:05;;;;;;;2.78;0.55;;;;;;;12.79;34.93;96332.91;5034112;28;20369;-28
2023/03/16 04:05:30;;;;;;;1.52;0.70;;;;;;;12.86;35.15;96332.66;5041045;28;20069;-28
2023/03/16 04:07:56;;;;;;;2.75;0.77;;;;;;;12.82;35.11;96339.44;5034299;28;20103;-28
2023/03/16 04:10:25;;;;;;;4.15;0.63;;;;;;;12.97;35.14;96342.44;5034493;28;20104;-29
2023/03/16 04:12:50;;;;;;;1.55;0.60;;;;;;;12.86;34.76;96345.50;5034841;28;20025;-28
2023/03/16 04:15:16;;;;;;;1.80;1.05;;;;;;;12.73;35.35;96344.81;5041233;28;20022;-28
2023/03/16 04:17:41;;;;;;;1.40;0.55;;;;;;;12.72;35.12;96344.06;5040830;28;20037;-28
2023/03/16 04:20:13;;;;;;;3.17;0.68;;;;;;;12.94;34.56;96349.50;5041590;28;20017;-28
2023/03/16 04:22:38;;;;;;;0.98;0.43;;;;;;;13.00;34.48;96350.44;5034311;28;20072;-28
2023/03/16 04:25:04;;;;;;;2.15;0.45;;;;;;;12.80;34.91;96350.00;5034523;28;20029;-28
2023/03/16 04:27:35;;;;;;;3.08;0.55;;;;;;;12.96;34.29;96352.56;5039063;28;20013;-28
2023/03/16 04:30:04;;;;;;;4.72;0.82;;;;;;;12.99;33.13;96359.81;5036668;28;20101;-28
2023/03/16 04:32:31;;;;;;;1.58;0.45;;;;;;;12.98;33.72;96361.03;5040164;28;20026;-28
2023/03/16 04:34:56;;;;;;;1.58;0.28;;;;;;;13.11;33.04;96364.44;5034407;28;20041;-28
2023/03/16 04:37:22;;;;;;;1.75;0.50;;;;;;;12.82;33.98;96363.94;5041424;28;20263;-28
2023/03/16 04:39:48;;;;;;;3.55;0.40;;;;;;;12.81;33.50;96359.69;5034278;28;20061;-28
2023/03/16 04:42:13;;;;;;;0.82;0.55;;;;;;;12.80;33.64;96366.34;5040798;28;20123;-28
2023/03/16 04:44:43;;;;;;;4.97;0.70;;;;;;;12.84;33.89;96358.81;5041047;28;20079;-28
2023/03/16 04:47:13;;;;;;;3.97;0.60;;;;;;;12.80;34.09;96364.38;5034026;28;20101;-28
2023/03/16 04:49:39;;;;;;;2.03;0.60;;;;;;;12.76;34.36;96362.97;5034243;28;20026;-28
2023/03/16 04:52:05;;;;;;;3.40;0.50;;;;;;;12.85;33.63;96363.81;5033999;28;20025;-28
2023/03/16 04:54:32;;;;;;;2.88;0.55;;;;;;;12.88;33.59;96360.19;5041374;28;20419;-28
2023/03/16 04:56:59;;;;;;;1.90;0.40;;;;;;;12.81;34.15;96365.91;5041911;28;20100;-28
2023/03/16 04:59:26;;;;;;;2.97;0.60;;;;;;;12.73;33.71;96366.59;5039742;28;20168;-28
2023/03/16 05:01:52;;;;;;;3.80;0.65;;;;;;;12.65;33.89;96355.19;5044857;28;20026;-28
2023/03/16 05:04:18;;;;;;;1.63;0.35;;;;;;;12.71;33.52;96347.22;5037418;28;20018;-28
2023/03/16 05:06:43;;;;;;;3.50;0.50;;;;;;;12.73;33.51;96350.28;5038339;28;20084;-28
2023/03/16 05:09:09;;;;;;;3.72;0.70;;;;;;;12.59;33.38;96357.72;5043183;28;20017;-28
2023/03/16 05:11:35;;;;;;;0.68;0.50;;;;;;;12.60;34.20;96353.03;5044382;28;20024;-28
2023/03/16 05:14:01;;;;;;;4.05;0.98;;;;;;;12.68;34.28;96362.47;5043572;28;20071;-28
2023/03/16 05:16:27;;;;;;;3.58;0.73;;;;;;;12.70;34.11;96365.50;5036546;28;20025;-29
2023/03/16 05:18:53;;;;;;;1.52;0.50;;;;;;;12.84;33.81;96362.31;5037272;28;20496;-29
2023/03/16 05:21:19;;;;;;;1.25;0.50;;;;;;;12.78;34.06;96368.72;5043349;28;20029;-29
2023/03/16 05:23:45;;;;;;;3.38;0.55;;;;;;;12.74;33.64;96362.66;5043844;28;20021;-29
2023/03/16 05:26:12;;;;;;;3.15;0.75;;;;;;;12.73;33.28;96355.72;5037700;28;20024;-29
2023/03/16 05:28:38;;;;;;;2.53;0.70;;;;;;;12.71;34.06;96352.66;5036881;28;20018;-28
2023/03/16 05:31:04;;;;;;;1.77;0.70;;;;;;;12.84;33.90;96353.38;5037518;28;20032;-29
2023/03/16 05:33:30;;;;;;;3.22;0.55;;;;;;;12.71;33.91;96356.16;5040621;28;20025;-29
2023/03/16 05:35:56;;;;;;;2.00;0.63;;;;;;;12.58;34.25;96363.59;5039514;28;20516;-29
2023/03/16 05:38:23;;;;;;;2.33;0.50;;;;;;;12.69;34.14;96376.84;5050524;28;20436;-29
2023/03/16 05:40:51;;;;;;;4.95;0.98;;;;;;;12.85;33.85;96384.84;5036689;28;20381;-28
2023/03/16 05:43:19;;;;;;;5.13;1.20;;;;;;;12.88;33.86;96392.84;5036886;28;20424;-29
2023/03/16 05:45:45;;;;;;;2.83;0.52;;;;;;;12.84;33.70;96394.19;5036719;28;20029;-29
2023/03/16 05:48:11;;;;;;;3.00;0.88;;;;;;;12.84;34.20;96400.41;5036514;28;20029;-29
2023/03/16 05:50:36;;;;;;;3.08;0.50;;;;;;;12.86;33.84;96397.22;5043823;28;20048;-29
2023/03/16 05:53:03;;;;;;;2.58;0.63;;;;;;;12.85;33.87;96401.16;5036629;28;20045;-29
2023/03/16 05:55:29;;;;;;;6.13;1.00;;;;;;;12.84;33.50;96411.28;5037097;28;20025;-28
2023/03/16 05:57:55;;;;;;;1.70;0.60;;;;;;;12.70;34.24;96405.56;5035988;28;20017;-28
2023/03/16 06:00:21;;;;;;;3.15;0.70;;;;;;;12.76;34.27;96417.41;5036657;28;20108;-29
2023/03/16 06:02:49;;;;;;;3.00;1.00;;;;;;;12.74;33.98;96420.56;5038863;28;20392;-29
2023/03/16 06:05:16;;;;;;;1.13;0.60;;;;;;;12.92;33.94;96433.56;5040628;28;20044;-28
2023/03/16 06:07:42;;;;;;;2.92;0.52;;;;;;;12.98;33.71;96425.63;5041870;28;20107;-28
2023/03/16 06:10:10;;;;;;;3.72;0.60;;;;;;;12.77;34.31;96427.09;5036209;28;20026;-29
2023/03/16 06:12:36;;;;;;;4.03;0.60;;;;;;;12.92;33.65;96425.41;5035686;28;20017;-29
2023/03/16 06:15:02;;;;;;;4.00;1.60;;;;;;;12.93;34.33;96432.38;5036311;28;20104;-29
2023/03/16 06:17:27;;;;;;;2.58;0.68;;;;;;;12.90;33.89;96444.13;5042729;28;20022;-29
2023/03/16 06:19:53;;;;;;;2.67;0.60;;;;;;;12.84;34.29;96435.03;5043442;28;20370;-29
2023/03/16 06:22:18;;;;;;;4.35;0.70;;;;;;;12.92;34.29;96437.06;5035850;28;20528;-29
2023/03/16 06:24:44;;;;;;;2.78;1.02;;;;;;;13.10;34.27;96443.84;5034892;28;20041;-29
2023/03/16 06:27:09;;;;;;;2.25;0.55;;;;;;;12.94;33.80;96444.78;5036636;28;20051;-29
2023/03/16 06:29:35;;;;;;;1.15;0.50;;;;;;;13.12;33.45;96435.97;5035905;28;20026;-29
2023/03/16 06:32:00;;;;;;;4.43;0.80;;;;;;;13.06;34.18;96449.41;5036018;28;20025;-29
2023/03/16 06:34:26;;;;;;;1.73;0.63;;;;;;;13.13;33.84;96451.13;5042593;28;20022;-29
2023/03/16 06:36:51;;;;;;;5.05;0.70;;;;;;;12.85;35.02;96456.34;5035932;28;20022;-29
2023/03/16 06:39:16;;;;;;;3.05;0.77;;;;;;;12.91;34.55;96454.59;5043632;28;20504;-29
2023/03/16 06:41:43;;;;;;;3.65;0.90;;;;;;;13.23;34.59;96453.50;5035719;28;20512;-29
2023/03/16 06:44:10;;;;;;;2.45;0.60;;;;;;;12.97;34.72;96452.06;5043305;28;20488;-28
2023/03/16 06:46:36;;;;;;;4.82;0.70;;;;;;;13.01;35.01;96447.25;5042389;28;20022;-29
2023/03/16 06:49:03;;;;;;;3.45;1.02;;;;;;;13.09;34.65;96461.41;5041000;28;20028;-29
2023/03/16 06:51:30;;;;;;;3.50;0.65;;;;;;;12.98;35.14;96464.47;5036630;28;20032;-29
2023/03/16 06:53:55;;;;;;;4.15;0.73;;;;;;;13.32;34.91;96471.13;5035246;28;20086;-29
2023/03/16 06:56:21;;;;;;;0.88;0.40;;;;;;;13.20;35.11;96470.75;5035844;28;20556;-29
2023/03/16 06:58:46;;;;;;;1.70;0.60;;;;;;;13.12;35.15;96463.22;5037140;28;20031;-29
2023/03/16 07:01:12;;;;;;;1.15;0.50;;;;;;;13.14;35.21;96480.66;5045666;28;20087;-29
2023/03/16 07:03:37;;;;;;;2.10;0.63;;;;;;;13.16;35.15;96483.72;5044761;28;20010;-29
2023/03/16 07:06:03;;;;;;;2.08;0.70;;;;;;;13.19;35.29;96488.28;5040463;28;20386;-29
2023/03/16 07:08:28;;;;;;;5.28;0.80;;;;;;;13.06;35.23;96486.78;5034525;28;20032;-29
2023/03/16 07:10:54;;;;;;;2.50;0.70;;;;;;;13.14;35.29;96477.94;5035183;28;20026;-29
2023/03/16 07:13:20;;;;;;;2.13;0.60;;;;;;;13.31;35.00;96497.59;5034350;28;20028;-29
2023/03/16 07:15:48;;;;;;;2.78;0.52;;;;;;;13.26;34.81;96487.25;5042065;28;20028;-29
2023/03/16 07:18:14;;;;;;;2.90;0.65;;;;;;;13.23;35.14;96507.97;5034680;28;20032;-29
2023/03/16 07:20:39;;;;;;;2.13;0.50;;;;;;;13.06;35.57;96487.53;5042226;28;20025;-29
2023/03/16 07:23:04;;;;;;;2.47;0.85;;;;;;;13.15;35.09;96512.13;5034473;28;20380;-29
2023/03/16 07:25:30;;;;;;;4.82;0.60;;;;;;;13.10;35.07;96495.59;5039218;28;20017;-29
2023/03/16 07:27:57;;;;;;;3.65;0.80;;;;;;;13.12;35.26;96502.09;5035237;28;20029;-29
2023/03/16 07:30:24;;;;;;;2.22;0.73;;;;;;;13.00;35.40;96500.16;5041644;28;20563;-29
2023/03/16 07:32:50;;;;;;;1.92;0.93;;;;;;;13.16;35.71;96499.28;5034728;28;20044;-29
2023/03/16 07:35:16;;;;;;;1.98;0.70;;;;;;;13.26;35.37;96509.81;5041072;28;20028;-29
2023/03/16 07:37:42;;;;;;;2.35;0.70;;;;;;;13.25;34.36;96508.28;5040012;28;20024;-29
2023/03/16 07:40:08;;;;;;;4.38;1.25;;;;;;;13.30;34.76;96513.19;5037258;28;20025;-29
2023/03/16 07:42:34;;;;;;;1.85;0.70;;;;;;;13.22;35.53;96519.31;5044835;28;20025;-29
2023/03/16 07:45:00;;;;;;;1.63;0.73;;;;;;;13.45;34.95;96512.69;5044573;28;20075;-29
2023/03/16 07:47:25;;;;;;;2.60;0.70;;;;;;;13.41;35.34;96517.50;5035200;28;20017;-29
2023/03/16 07:49:51;;;;;;;1.00;0.60;;;;;;;13.30;34.95;96520.59;5034477;28;20029;-29
2023/03/16 07:52:17;;;;;;;4.22;0.80;;;;;;;13.29;35.26;96533.44;5034592;28;20022;-29
2023/03/16 07:54:42;;;;;;;2.95;0.70;;;;;;;13.36;35.16;96529.72;5035896;28;20017;-29
2023/03/16 07:57:10;;;;;;;2.55;0.68;;;;;;;13.49;34.03;96541.31;5038502;28;20071;-29
2023/03/16 07:59:37;;;;;;;3.38;0.90;;;;;;;13.32;35.34;96542.72;5040384;28;20381;-29
2023/03/16 08:02:03;;;;;;;3.70;1.00;;;;;;;13.43;35.33;96551.28;5041850;28;20036;-29
2023/03/16 08:04:28;;;;;;;2.80;0.70;;;;;;;13.42;34.80;96563.38;5035041;28;20384;-29
2023/03/16 08:06:59;;;;;;;3.15;0.90;;;;;;;13.50;35.15;96558.44;5034224;28;20370;-29
2023/03/16 08:09:25;;;;;;;2.50;0.68;;;;;;;13.68;34.18;96566.00;5040995;28;20041;-29
2023/03/16 08:11:51;;;;;;;3.47;0.60;;;;;;;13.61;34.96;96569.72;5041655;28;20029;-29
2023/03/16 08:14:16;;;;;;;2.40;0.70;;;;;;;13.56;35.03;96578.47;5033863;28;20021;-29
2023/03/16 08:16:42;;;;;;;2.45;0.70;;;;;;;13.77;34.58;96579.69;5035080;28;20037;-29
2023/03/16 08:19:07;;;;;;;2.75;0.95;;;;;;;13.71;34.79;96571.31;5037425;28;20024;-29
2023/03/16 08:21:33;;;;;;;3.55;1.10;;;;;;;13.49;35.86;96586.88;5043977;28;20084;-29
2023/03/16 08:23:58;;;;;;;3.58;1.15;;;;;;;13.81;35.19;96594.72;5036296;28;20025;-29
2023/03/16 08:26:25;;;;;;;1.85;0.90;;;;;;;13.85;35.07;96586.41;5040459;28;20105;-29
2023/03/16 08:28:51;;;;;;;3.22;0.80;;;;;;;13.65;35.09;96592.16;5034412;28;20033;-29
2023/03/16 08:31:18;;;;;;;1.90;0.70;;;;;;;13.81;35.00;96594.72;5044750;28;20060;-29
2023/03/16 08:33:45;;;;;;;3.50;0.52;;;;;;;13.78;34.69;96598.31;5037923;28;20030;-29
2023/03/16 08:36:14;;;;;;;6.40;1.08;;;;;;;13.89;35.18;96595.97;5038795;28;20029;-29
2023/03/16 08:38:40;;;;;;;1.80;0.57;;;;;;;13.77;35.31;96609.66;5044779;28;20056;-29
2023/03/16 08:41:06;;;;;;;3.10;0.68;;;;;;;13.82;34.28;96607.16;5038353;28;20044;-29
2023/03/16 08:43:32;;;;;;;1.95;0.70;;;;;;;14.07;34.47;96614.44;5045451;28;20088;-29
2023/03/16 08:45:58;;;;;;;5.88;1.70;;;;;;;14.09;34.16;96614.00;5038014;28;20160;-29
2023/03/16 08:48:24;;;;;;;2.40;0.50;;;;;;;14.24;34.59;96620.44;5038444;28;20048;-29
2023/03/16 08:50:50;;;;;;;3.75;0.55;;;;;;;14.07;34.83;96617.16;5040387;28;20064;-29
2023/03/16 08:53:17;;;;;;;1.63;0.60;;;;;;;14.12;34.60;96619.31;5040241;28;20025;-29
2023/03/16 08:55:43;;;;;;;3.28;1.17;;;;;;;14.20;34.37;96620.59;5044899;28;20059;-29
2023/03/16 08:58:11;;;;;;;3.55;0.80;;;;;;;14.36;34.58;96622.34;5041225;28;20021;-29
2023/03/16 09:00:37;;;;;;;2.33;0.95;;;;;;;14.30;34.66;96635.81;5039547;28;20024;-29
2023/03/16 09:03:04;;;;;;;4.45;0.68;;;;;;;14.33;34.79;96634.16;5042723;28;20056;-29
2023/03/16 09:05:30;;;;;;;4.05;1.17;;;;;;;14.34;34.98;96630.22;5044106;28;20053;-29
2023/03/16 09:07:55;;;;;;;4.10;0.93;;;;;;;14.25;35.11;96628.19;5035901;28;20026;-29
2023/03/16 09:10:22;;;;;;;3.33;1.10;;;;;;;14.41;35.78;96632.72;5037543;28;20028;-29
2023/03/16 09:12:51;;;;;;;1.60;0.70;;;;;;;14.45;34.76;96629.84;5037348;28;20036;-29
2023/03/16 09:15:18;;;;;;;1.85;0.60;;;;;;;14.27;35.98;96627.75;5037247;28;20029;-29
2023/03/16 09:17:45;;;;;;;2.83;0.90;;;;;;;14.63;35.20;96625.25;5043516;28;20123;-29
2023/03/16 09:20:12;;;;;;;2.75;1.08;;;;;;;14.60;34.31;96637.03;5047656;28;20032;-29
2023/03/16 09:22:38;;;;;;;2.47;1.05;;;;;;;14.63;34.44;96632.66;5040784;28;20033;-29
2023/03/16 09:25:05;;;;;;;5.05;0.65;;;;;;;14.73;34.49;96635.00;5037307;28;20025;-29
2023/03/16 09:27:32;;;;;;;2.22;0.88;;;;;;;14.61;33.83;96627.66;5036409;28;20361;-29
2023/03/16 09:29:59;;;;;;;2.65;0.77;;;;;;;14.53;34.78;96631.09;5035430;28;20478;-29
2023/03/16 09:32:27;;;;;;;2.17;0.50;;;;;;;14.77;35.27;96639.56;5044226;28;20477;-29
2023/03/16 09:34:53;;;;;;;1.10;0.65;;;;;;;14.74;35.47;96630.28;5042429;28;20476;-29
2023/03/16 09:37:20;;;;;;;2.28;0.88;;;;;;;14.89;35.97;96644.16;5037506;28;20555;-29
2023/03/16 09:39:46;;;;;;;2.00;0.60;;;;;;;14.84;35.66;96650.97;5036919;28;20029;-29
2023/03/16 09:42:19;;;;;;;1.33;0.80;;;;;;;14.88;34.76;96637.19;5045429;28;20492;-29
2023/03/16 09:44:55;;;;;;;1.73;0.70;;;;;;;15.01;34.74;96640.56;5043357;28;20048;-29
2023/03/16 09:47:29;;;;;;;2.05;0.60;;;;;;;15.01;36.04;96649.50;5043806;28;20021;-29
2023/03/16 09:50:03;;;;;;;1.83;0.70;;;;;;;14.97;34.45;96629.00;5041296;28;20388;-29
2023/03/16 09:52:38;;;;;;;1.83;0.70;;;;;;;15.03;34.76;96629.94;5036629;28;20113;-29
2023/03/16 09:55:27;;;;;;;2.95;1.08;;;;;;;15.05;33.02;96641.94;5036415;28;20013;-29
2023/03/16 09:57:53;;;;;;;3.53;0.82;;;;;;;15.11;33.39;96639.38;5042909;28;20071;-29
2023/03/16 10:00:25;;;;;;;1.42;0.80;;;;;;;15.16;36.55;96640.78;5043306;28;20017;-29
2023/03/16 10:02:56;;;;;;;3.13;1.25;;;;;;;15.04;33.57;96639.66;5036383;28;20017;-29
2023/03/16 10:05:23;;;;;;;2.05;1.10;;;;;;;15.15;32.42;96625.59;5036314;28;20042;-29
2023/03/16 10:08:14;;;;;;;5.30;1.35;;;;;;;15.19;34.91;96634.41;5035750;28;20484;-29
2023/03/16 10:11:09;;;;;;;2.00;1.08;;;;;;;15.08;33.49;96626.63;5036317;28;20035;-29
2023/03/16 10:13:52;;;;;;;1.05;0.63;;;;;;;15.01;32.58;96621.44;5043070;28;20112;-29
2023/03/16 10:16:20;;;;;;;;;;;;;;;15.24;32.36;96622.88;5036590;28;20159;-29
2023/03/16 10:18:49;;;;;;;3.15;0.85;;;;;;;15.29;34.39;96623.03;5035970;28;19909;-29
2023/03/16 10:21:18;;;;;;;1.50;0.75;;;;;;;15.34;32.37;96622.44;5036246;28;20384;-29
2023/03/16 10:23:45;;;;;;;1.80;0.98;;;;;;;15.34;34.06;96627.91;5036054;28;20013;-29
2023/03/16 10:26:14;;;;;;;2.22;0.90;;;;;;;15.24;31.91;96623.63;5045566;28;20017;-29
2023/03/16 10:28:42;;;;;;;1.88;0.93;;;;;;;15.08;31.77;96616.44;5040071;28;20028;-29
2023/03/16 10:31:10;;;;;;;3.75;1.10;;;;;;;15.27;32.02;96622.72;5035798;28;20354;-29
2023/03/16 10:33:36;;;;;;;3.35;0.90;;;;;;;15.33;34.47;96631.84;5035634;28;20104;-29
2023/03/16 10:36:18;;;;;;;2.13;1.17;;;;;;;15.31;32.87;96623.34;5036347;28;20417;-29
2023/03/16 10:38:58;;;;;;;2.40;0.90;;;;;;;15.38;30.68;96628.53;5035734;28;20083;-29
2023/03/16 10:41:31;;;;;;;1.67;0.88;;;;;;;15.38;32.17;96623.06;5041968;28;20017;-29
2023/03/16 10:44:06;;;;;;;1.67;0.93;;;;;;;15.27;31.61;96614.53;5035453;28;20031;-29
2023/03/16 10:47:03;;;;;;;2.75;0.70;;;;;;;15.36;31.13;96636.41;5042666;28;20476;-29
2023/03/16 10:49:40;;;;;;;1.38;0.60;;;;;;;15.50;30.63;96635.06;5035709;28;20052;-29
2023/03/16 10:52:26;;;;;;;1.40;1.10;;;;;;;15.30;31.09;96624.56;5034545;28;20025;-29
2023/03/16 10:54:55;;;;;;;2.03;0.95;;;;;;;15.52;32.09;96640.09;5024834;28;20037;-29
2023/03/16 10:57:33;;;;;;;2.10;1.00;;;;;;;15.23;30.04;96633.03;5046988;28;20480;-29
2023/03/16 11:00:21;;;;;;;3.38;1.95;;;;;;;15.31;30.91;96634.28;5035343;28;20116;-29
2023/03/16 11:02:53;;;;;;;3.20;1.70;;;;;;;15.21;29.70;96637.44;5042425;28;20021;-29
2023/03/16 11:05:18;;;;;;;7.22;2.55;;;;;;;15.37;30.60;96637.94;5039309;28;20497;-29
2023/03/16 11:07:59;;;;;;;3.60;1.90;;;;;;;15.28;29.50;96645.34;5041882;28;20025;-29
2023/03/16 11:10:35;;;;;;;3.03;1.60;;;;;;;15.38;30.87;96634.00;5041772;28;20032;-29
2023/03/16 11:13:13;;;;;;;3.78;1.67;;;;;;;15.31;30.34;96656.16;5042172;28;20591;-29
2023/03/16 11:16:01;;;;;;;2.90;1.33;;;;;;;15.53;30.10;96644.34;5035117;28;20040;-29
2023/03/16 11:18:52;;;;;;;2.60;1.23;;;;;;;15.44;30.79;96653.28;5033523;28;20044;-29
2023/03/16 11:21:33;;;;;;;2.78;1.25;;;;;;;15.62;30.61;96652.56;5034292;28;20025;-29
2023/03/16 11:24:03;;;;;;;2.05;0.98;;;;;;;15.35;30.31;96645.81;5041263;28;20022;-29
2023/03/16 11:26:33;;;;;;;1.55;0.82;;;;;;;15.43;31.68;96658.00;5034830;28;20025;-29
2023/03/16 11:29:08;;;;;;;1.60;0.60;;;;;;;15.50;32.13;96653.44;5035245;28;20032;-29
2023/03/16 11:31:52;;;;;;;2.63;0.82;;;;;;;15.28;31.70;96640.66;5034463;28;20120;-29
2023/03/16 11:34:26;;;;;;;2.33;0.90;;;;;;;15.36;30.96;96650.06;5035358;28;20028;-29
2023/03/16 11:37:16;;;;;;;1.45;0.80;;;;;;;15.56;31.48;96660.63;5041818;28;20036;-29
2023/03/16 11:40:08;;;;;;;2.67;0.98;;;;;;;15.71;32.20;96672.47;5041535;28;20026;-29
2023/03/16 11:42:39;;;;;;;1.83;0.70;;;;;;;15.50;31.19;96676.06;5034649;28;20021;-29
2023/03/16 11:45:10;;;;;;;1.20;0.50;;;;;;;15.50;31.16;96675.31;5034858;28;20060;-29
2023/03/16 11:48:03;;;;;;;1.92;0.85;;;;;;;15.58;31.87;96685.53;5040430;28;20021;-29